createdAt,value
2022-07-26T00:02:18.052Z,23.15
2022-07-26T00:08:11.997Z,23.16
2022-07-26T00:13:45.730Z,23.15
2022-07-26T00:24:35.297Z,23.08
2022-07-26T00:29:39.920Z,23.07
2022-07-26T00:34:45.837Z,23.07
2022-07-26T00:39:57.028Z,23.09
2022-07-26T00:45:06.281Z,23.03
2022-07-26T00:50:26.486Z,23.04
2022-07-26T00:55:35.416Z,23.03
2022-07-26T01:00:42.318Z,23.04
2022-07-26T01:05:57.615Z,23.03
2022-07-26T01:11:09.255Z,23.03
2022-07-26T01:16:16.171Z,23.00
2022-07-26T01:21:32.528Z,22.98
2022-07-26T01:26:52.088Z,23.01
2022-07-26T01:31:57.448Z,23.03
2022-07-26T01:37:13.603Z,23.01
2022-07-26T01:42:36.339Z,22.99
2022-07-26T01:47:51.159Z,23.01
2022-07-26T01:53:16.455Z,23.05
2022-07-26T01:58:31.877Z,23.03
2022-07-26T02:03:49.460Z,23.00
2022-07-26T02:09:09.764Z,22.95
2022-07-26T02:14:28.173Z,22.84
2022-07-26T02:19:35.462Z,22.78
2022-07-26T02:25:02.958Z,22.71
2022-07-26T02:30:28.112Z,22.66
2022-07-26T02:35:46.053Z,22.60
2022-07-26T02:41:01.834Z,22.55
2022-07-26T02:46:17.865Z,22.47
2022-07-26T02:51:40.931Z,22.41
2022-07-26T02:56:50.474Z,22.36
2022-07-26T03:02:06.194Z,22.26
2022-07-26T03:07:12.740Z,22.19
2022-07-26T03:12:29.177Z,22.11
2022-07-26T03:17:52.542Z,22.04
2022-07-26T03:23:04.467Z,21.97
2022-07-26T03:28:09.972Z,21.89
2022-07-26T03:33:21.384Z,21.82
2022-07-26T03:38:50.329Z,21.77
2022-07-26T03:44:06.047Z,21.64
2022-07-26T03:49:26.992Z,21.58
2022-07-26T03:54:47.632Z,21.52
2022-07-26T04:00:12.145Z,21.46
2022-07-26T04:05:26.165Z,21.44
2022-07-26T04:10:47.178Z,21.43
2022-07-26T04:16:18.107Z,21.43
2022-07-26T04:21:47.266Z,21.41
2022-07-26T04:26:55.818Z,21.41
2022-07-26T04:32:10.167Z,21.42
2022-07-26T04:37:26.852Z,21.44
2022-07-26T04:42:32.468Z,21.48
2022-07-26T04:47:42.995Z,21.53
2022-07-26T04:52:57.678Z,21.61
2022-07-26T04:58:01.655Z,21.70
2022-07-26T05:03:10.237Z,21.72
2022-07-26T05:08:18.037Z,21.76
2022-07-26T05:13:29.576Z,22.02
2022-07-26T05:18:49.058Z,22.28
2022-07-26T05:23:58.560Z,22.89
2022-07-26T05:29:06.547Z,23.58
2022-07-26T05:34:23.309Z,23.53
2022-07-26T05:39:41.534Z,23.72
2022-07-26T05:44:49.320Z,23.93
2022-07-26T05:50:04.583Z,24.14
2022-07-26T05:55:26.093Z,24.62
2022-07-26T06:00:32.885Z,25.30
2022-07-26T06:05:59.188Z,25.42
2022-07-26T06:11:14.355Z,25.08
2022-07-26T06:16:25.120Z,24.90
2022-07-26T06:21:33.961Z,24.81
2022-07-26T06:26:43.954Z,24.78
2022-07-26T06:32:05.847Z,24.71
2022-07-26T06:37:10.413Z,24.65
2022-07-26T06:42:34.544Z,24.94
2022-07-26T06:48:02.994Z,27.97
2022-07-26T06:53:18.407Z,29.42
2022-07-26T06:58:30.025Z,28.98
2022-07-26T07:09:03.700Z,29.48
2022-07-26T07:14:25.795Z,29.28
2022-07-26T07:19:53.391Z,29.65
2022-07-26T07:25:03.023Z,30.03
2022-07-26T07:30:18.039Z,31.37
2022-07-26T07:35:32.049Z,30.94
2022-07-26T07:40:43.401Z,30.65
2022-07-26T07:45:56.589Z,30.37
2022-07-26T07:51:12.701Z,30.80
2022-07-26T07:56:33.613Z,30.61
2022-07-26T08:02:08.837Z,30.52
2022-07-26T08:07:32.827Z,30.39
2022-07-26T08:12:51.362Z,30.05
2022-07-26T08:18:04.543Z,29.96
2022-07-26T08:23:16.079Z,29.85
2022-07-26T08:28:46.366Z,29.74
2022-07-26T08:34:00.498Z,29.79
2022-07-26T08:39:05.398Z,29.50
2022-07-26T08:44:12.910Z,29.62
2022-07-26T08:49:21.616Z,29.37
2022-07-26T08:54:28.644Z,29.24
2022-07-26T08:59:37.942Z,29.11
2022-07-26T09:05:07.880Z,28.96
2022-07-26T09:10:27.284Z,29.19
2022-07-26T09:15:44.638Z,29.25
2022-07-26T09:21:01.242Z,29.37
2022-07-26T09:26:10.820Z,29.03
2022-07-26T09:31:38.860Z,28.85
2022-07-26T09:37:26.897Z,28.69
2022-07-26T09:42:34.013Z,28.43
2022-07-26T09:47:50.354Z,28.38
2022-07-26T09:53:22.772Z,28.52
2022-07-26T09:58:46.878Z,28.38
2022-07-26T10:04:05.696Z,28.44
2022-07-26T10:09:13.955Z,28.42
2022-07-26T10:14:54.529Z,28.26
2022-07-26T10:20:25.178Z,28.18
2022-07-26T10:25:50.946Z,28.31
2022-07-26T10:31:12.368Z,28.54
2022-07-26T10:36:48.399Z,28.95
2022-07-26T10:42:09.450Z,29.09
2022-07-26T10:47:19.217Z,29.09
2022-07-26T10:52:29.799Z,29.11
2022-07-26T10:57:37.930Z,28.88
2022-07-26T11:02:47.647Z,28.55
2022-07-26T11:08:06.544Z,28.21
2022-07-26T11:13:16.906Z,28.11
2022-07-26T11:18:28.121Z,28.04
2022-07-26T11:23:37.576Z,28.02
2022-07-26T11:29:00.247Z,28.29
2022-07-26T11:34:05.108Z,28.67
2022-07-26T11:39:15.388Z,28.88
2022-07-26T11:44:24.620Z,29.08
2022-07-26T11:50:00.770Z,29.16
2022-07-26T11:55:18.349Z,29.16
2022-07-26T12:00:25.227Z,28.95
2022-07-26T12:05:39.201Z,28.93
2022-07-26T12:10:48.139Z,28.81
2022-07-26T12:16:00.454Z,28.56
2022-07-26T12:21:14.639Z,28.48
2022-07-26T12:26:32.380Z,28.31
2022-07-26T12:31:37.499Z,28.14
2022-07-26T12:36:50.869Z,27.99
2022-07-26T12:42:04.988Z,27.97
2022-07-26T12:47:11.425Z,27.85
2022-07-26T12:52:23.854Z,27.72
2022-07-26T12:57:32.094Z,27.68
2022-07-26T13:02:46.567Z,27.62
2022-07-26T13:08:01.034Z,27.63
2022-07-26T13:13:17.158Z,27.69
2022-07-26T13:18:46.611Z,27.79
2022-07-26T13:23:59.362Z,27.86
2022-07-26T13:29:12.777Z,27.57
2022-07-26T13:34:35.257Z,27.02
2022-07-26T13:39:56.335Z,26.50
2022-07-26T13:45:08.877Z,26.06
2022-07-26T13:50:26.197Z,25.66
2022-07-26T13:55:36.805Z,25.42
2022-07-26T14:00:53.894Z,25.22
2022-07-26T14:06:15.689Z,25.11
2022-07-26T14:11:41.000Z,24.92
2022-07-26T14:17:23.056Z,24.98
2022-07-26T14:22:32.792Z,24.91
2022-07-26T14:27:44.116Z,24.87
2022-07-26T14:33:06.697Z,25.06
2022-07-26T14:38:24.336Z,25.24
2022-07-26T14:43:37.325Z,25.32
2022-07-26T14:48:54.873Z,25.37
2022-07-26T14:54:02.306Z,25.39
2022-07-26T14:59:18.546Z,25.46
2022-07-26T15:04:25.873Z,25.60
2022-07-26T15:09:31.472Z,25.62
2022-07-26T15:14:35.435Z,25.61
2022-07-26T15:19:47.140Z,25.66
2022-07-26T15:24:53.907Z,25.66
2022-07-26T15:30:04.296Z,25.65
2022-07-26T15:35:14.945Z,25.72
2022-07-26T15:40:21.152Z,25.69
2022-07-26T15:45:28.085Z,25.60
2022-07-26T15:50:39.419Z,25.66
2022-07-26T15:55:47.462Z,25.65
2022-07-26T16:00:58.024Z,25.63
2022-07-26T16:06:08.749Z,25.55
2022-07-26T16:11:30.242Z,25.39
2022-07-26T16:16:45.785Z,25.46
2022-07-26T16:21:57.869Z,25.45
2022-07-26T16:27:10.947Z,25.41
2022-07-26T16:32:22.538Z,25.36
2022-07-26T16:37:35.123Z,25.25
2022-07-26T16:42:46.045Z,25.11
2022-07-26T16:48:00.022Z,24.96
2022-07-26T16:53:10.337Z,24.82
2022-07-26T16:58:20.723Z,24.75
2022-07-26T17:03:33.262Z,24.61
2022-07-26T17:08:43.714Z,24.55
2022-07-26T17:13:53.023Z,24.52
2022-07-26T17:19:00.950Z,24.53
2022-07-26T17:24:31.299Z,24.51
2022-07-26T17:29:39.022Z,24.47
2022-07-26T17:34:48.571Z,24.39
2022-07-26T17:39:58.497Z,24.31
2022-07-26T17:45:16.589Z,24.25
2022-07-26T17:50:36.510Z,24.27
2022-07-26T17:55:52.027Z,24.24
2022-07-26T18:01:05.989Z,24.23
2022-07-26T18:06:17.890Z,24.15
2022-07-26T18:11:28.260Z,24.09
2022-07-26T18:16:41.942Z,24.07
2022-07-26T18:21:51.064Z,24.00
2022-07-26T18:26:57.953Z,23.92
2022-07-26T18:32:07.957Z,23.87
2022-07-26T18:37:14.243Z,23.79
2022-07-26T18:42:27.925Z,23.73
2022-07-26T18:47:39.996Z,23.63
2022-07-26T18:52:49.213Z,23.52
2022-07-26T18:58:06.510Z,23.44
2022-07-26T19:03:12.685Z,23.34
2022-07-26T19:19:39.577Z,23.06
2022-07-26T19:24:47.355Z,22.96
2022-07-26T19:30:11.440Z,22.86
2022-07-26T19:35:34.922Z,22.78
2022-07-26T19:41:00.410Z,22.77
2022-07-26T19:46:17.814Z,22.71
2022-07-26T19:51:31.245Z,22.67
2022-07-26T19:56:43.296Z,22.63
2022-07-26T20:07:26.296Z,22.49
2022-07-26T20:12:33.846Z,22.46
2022-07-26T20:17:45.354Z,22.41
2022-07-26T20:23:05.387Z,22.35
2022-07-26T20:28:16.909Z,22.26
2022-07-26T20:33:26.064Z,22.22
2022-07-26T20:38:32.797Z,22.19
2022-07-26T20:43:41.959Z,22.17
2022-07-26T20:48:56.665Z,22.14
2022-07-26T20:54:03.923Z,22.10
2022-07-26T20:59:16.823Z,22.04
2022-07-26T21:04:26.400Z,22.01
2022-07-26T21:09:34.322Z,21.97
2022-07-26T21:14:44.085Z,21.95
2022-07-26T21:19:53.013Z,21.91
2022-07-26T21:25:05.429Z,21.90
2022-07-26T21:30:17.588Z,21.87
2022-07-26T21:35:33.668Z,21.89
2022-07-26T21:40:38.380Z,21.87
2022-07-26T21:45:43.390Z,21.82
2022-07-26T21:50:54.083Z,21.80
2022-07-26T21:56:13.032Z,21.79
2022-07-26T22:01:26.694Z,21.74
2022-07-26T22:06:32.813Z,21.70
2022-07-26T22:11:38.950Z,21.66
2022-07-26T22:16:44.736Z,21.64
2022-07-26T22:21:52.256Z,21.61
2022-07-26T22:27:04.460Z,21.58
2022-07-26T22:32:12.492Z,21.55
2022-07-26T22:37:20.378Z,21.51
2022-07-26T22:42:26.025Z,21.45
2022-07-26T22:47:31.208Z,21.42
2022-07-26T22:52:43.144Z,21.39
2022-07-26T22:57:47.988Z,21.37
2022-07-26T23:02:52.407Z,21.34
2022-07-26T23:08:03.994Z,21.33
2022-07-26T23:13:13.332Z,21.29
2022-07-26T23:18:18.905Z,21.25
2022-07-26T23:23:35.414Z,21.18
2022-07-26T23:29:06.204Z,21.15
2022-07-26T23:34:14.263Z,21.08
2022-07-26T23:39:23.690Z,21.06
2022-07-26T23:44:29.059Z,20.98
2022-07-26T23:49:43.315Z,20.93
2022-07-26T23:55:00.042Z,20.88
